Time;durP1;ratioP1;P1;durP2;ratioP2;P2;SDS_P1;SDS_P2;PMS_P1;PMS_P2;Temp;Humidity;BMP_temperature;BMP_pressure;BME280_temperature;BME280_humidity;BME280_pressure;Samples;Min_cycle;Max_cycle;Signal;HPM_P1;HPM_P2
2021/12/12 00:02:30;;;;;;;40.92;30.08;;;;;;;;;;5012920;28;20401;-83
2021/12/12 00:04:58;;;;;;;38.42;28.38;;;;;;;;;;5012203;28;21101;-81
2021/12/12 00:07:29;;;;;;;36.30;26.80;;;;;;;;;;5011901;28;20419;-83
2021/12/12 00:10:03;;;;;;;37.45;26.17;;;;;;;;;;5014682;28;20578;-81
2021/12/12 00:12:34;;;;;;;33.75;25.42;;;;;;;;;;5013754;28;20602;-82
2021/12/12 00:15:05;;;;;;;32.85;23.85;;;;;;;;;;5014784;28;20449;-82
2021/12/12 00:17:32;;;;;;;34.10;25.05;;;;;;;;;;5020415;28;20793;-83
2021/12/12 00:19:59;;;;;;;35.67;25.60;;;;;;;;;;5009140;28;20414;-83
2021/12/12 00:22:28;;;;;;;34.42;24.40;;;;;;;;;;5008135;28;20821;-82
2021/12/12 00:24:56;;;;;;;32.03;24.30;;;;;;;;;;5007812;28;20401;-83
2021/12/12 00:27:23;;;;;;;34.13;23.83;;;;;;;;;;5015918;28;20421;-83
2021/12/12 00:29:50;;;;;;;33.33;24.27;;;;;;;;;;5010354;28;20944;-83
2021/12/12 00:32:23;;;;;;;31.50;23.05;;;;;;;;;;5007690;28;20414;-83
2021/12/12 00:34:53;;;;;;;34.35;22.98;;;;;;;;;;5017412;28;20813;-83
2021/12/12 00:37:21;;;;;;;34.80;24.58;;;;;;;;;;5006979;28;20582;-83
2021/12/12 00:39:53;;;;;;;32.17;23.25;;;;;;;;;;5006869;28;20526;-83
2021/12/12 00:42:23;;;;;;;35.50;23.95;;;;;;;;;;5004686;28;20414;-84
2021/12/12 00:44:59;;;;;;;34.25;24.33;;;;;;;;;;5007896;28;20407;-83
2021/12/12 00:47:28;;;;;;;32.60;23.40;;;;;;;;;;5004190;28;20419;-82
2021/12/12 00:49:55;;;;;;;31.43;23.23;;;;;;;;;;5004547;28;20458;-83
2021/12/12 00:52:22;;;;;;;31.73;23.45;;;;;;;;;;5005606;28;20427;-84
2021/12/12 00:54:51;;;;;;;34.08;23.42;;;;;;;;;;5005947;28;20407;-83
2021/12/12 00:57:21;;;;;;;30.75;22.27;;;;;;;;;;5011898;28;20423;-83
2021/12/12 00:59:48;;;;;;;30.95;22.23;;;;;;;;;;5008204;28;20418;-84
2021/12/12 01:02:18;;;;;;;30.92;22.65;;;;;;;;;;5005565;28;20466;-83
2021/12/12 01:04:48;;;;;;;32.42;22.95;;;;;;;;;;5007117;28;20411;-82
2021/12/12 01:07:21;;;;;;;28.63;21.38;;;;;;;;;;5007491;28;20430;-83
2021/12/12 01:09:51;;;;;;;29.30;21.50;;;;;;;;;;5005831;28;20413;-84
2021/12/12 01:12:23;;;;;;;29.38;21.33;;;;;;;;;;5005441;28;20434;-83
2021/12/12 01:14:55;;;;;;;28.23;21.63;;;;;;;;;;5010598;28;20399;-83
2021/12/12 01:17:27;;;;;;;30.48;21.35;;;;;;;;;;5005301;28;20469;-83
2021/12/12 01:19:58;;;;;;;32.10;21.40;;;;;;;;;;5007888;28;20883;-83
2021/12/12 01:22:30;;;;;;;30.98;21.70;;;;;;;;;;5009189;28;20768;-84
2021/12/12 01:24:59;;;;;;;30.60;20.65;;;;;;;;;;5009311;28;20497;-83
2021/12/12 01:27:26;;;;;;;28.58;20.98;;;;;;;;;;5022909;28;20413;-81
2021/12/12 01:29:53;;;;;;;29.33;20.37;;;;;;;;;;5017345;28;20422;-81
2021/12/12 01:32:27;;;;;;;28.55;20.98;;;;;;;;;;5008705;28;20413;-82
2021/12/12 01:34:58;;;;;;;27.85;20.50;;;;;;;;;;5009124;28;20451;-82
2021/12/12 01:37:42;;;;;;;26.35;19.52;;;;;;;;;;5008579;28;20997;-81
2021/12/12 01:40:15;;;;;;;27.10;20.00;;;;;;;;;;5024948;28;20405;-83
2021/12/12 01:42:50;;;;;;;26.03;19.80;;;;;;;;;;5022468;28;20477;-83
2021/12/12 01:45:21;;;;;;;26.80;20.38;;;;;;;;;;5018915;28;20418;-83
2021/12/12 01:47:51;;;;;;;26.10;20.40;;;;;;;;;;5008753;28;20415;-83
2021/12/12 01:50:26;;;;;;;27.85;19.25;;;;;;;;;;5008271;28;20405;-83
2021/12/12 01:52:54;;;;;;;27.55;20.08;;;;;;;;;;5012683;28;20426;-83
2021/12/12 01:55:25;;;;;;;28.52;20.08;;;;;;;;;;5008291;28;20407;-83
2021/12/12 01:57:55;;;;;;;26.52;19.90;;;;;;;;;;5008273;28;20422;-83
2021/12/12 02:00:26;;;;;;;27.17;18.88;;;;;;;;;;5011124;28;20415;-82
2021/12/12 02:02:54;;;;;;;24.70;18.83;;;;;;;;;;5014956;28;20412;-83
2021/12/12 02:05:24;;;;;;;28.08;19.50;;;;;;;;;;5027312;28;20423;-83
2021/12/12 02:07:55;;;;;;;26.45;19.42;;;;;;;;;;5026433;28;20394;-83
2021/12/12 02:10:26;;;;;;;27.58;19.63;;;;;;;;;;5026270;28;20460;-83
2021/12/12 02:12:53;;;;;;;27.52;19.75;;;;;;;;;;5020511;28;20945;-83
2021/12/12 02:15:21;;;;;;;26.70;19.95;;;;;;;;;;5011704;28;20406;-83
2021/12/12 02:17:49;;;;;;;27.88;19.55;;;;;;;;;;5009048;28;20429;-84
2021/12/12 02:20:23;;;;;;;26.40;20.02;;;;;;;;;;5009038;28;20454;-84
2021/12/12 02:23:03;;;;;;;28.00;19.83;;;;;;;;;;5009205;28;20469;-84
2021/12/12 02:36:35;;;;;;;24.95;18.88;;;;;;;;;;5008364;28;20445;-83
2021/12/12 02:39:15;;;;;;;27.00;18.73;;;;;;;;;;5026161;28;20587;-83
2021/12/12 02:41:43;;;;;;;26.42;18.88;;;;;;;;;;5015769;28;20471;-82
2021/12/12 02:44:11;;;;;;;26.85;19.02;;;;;;;;;;5021332;28;20760;-83
2021/12/12 02:46:40;;;;;;;26.77;19.25;;;;;;;;;;5008666;28;20486;-83
2021/12/12 02:49:22;;;;;;;25.60;19.03;;;;;;;;;;5008600;28;20559;-83
2021/12/12 02:51:50;;;;;;;24.40;18.40;;;;;;;;;;5008945;28;20892;-82
2021/12/12 02:54:18;;;;;;;25.60;17.55;;;;;;;;;;5008952;28;20411;-83
2021/12/12 02:56:47;;;;;;;24.37;17.50;;;;;;;;;;5008779;28;20403;-83
2021/12/12 02:59:18;;;;;;;25.27;17.83;;;;;;;;;;5011924;28;20435;-83
2021/12/12 03:01:50;;;;;;;24.40;17.63;;;;;;;;;;5016023;28;20405;-83
2021/12/12 03:04:18;;;;;;;22.90;17.43;;;;;;;;;;5017419;28;20407;-83
2021/12/12 03:06:45;;;;;;;26.02;17.27;;;;;;;;;;5018124;28;20405;-82
2021/12/12 03:09:16;;;;;;;23.10;17.10;;;;;;;;;;5016260;28;20407;-82
2021/12/12 03:11:46;;;;;;;24.02;17.35;;;;;;;;;;5018842;28;20412;-83
2021/12/12 03:14:13;;;;;;;23.25;16.50;;;;;;;;;;5020981;28;20889;-82
2021/12/12 03:16:40;;;;;;;21.33;15.40;;;;;;;;;;5016132;28;20448;-83
2021/12/12 03:19:08;;;;;;;20.77;15.50;;;;;;;;;;5018880;28;20920;-82
2021/12/12 03:21:42;;;;;;;22.73;16.17;;;;;;;;;;5015488;28;20414;-82
2021/12/12 03:24:12;;;;;;;20.75;15.20;;;;;;;;;;5015894;28;20469;-83
2021/12/12 03:26:41;;;;;;;20.55;15.85;;;;;;;;;;5018436;28;20401;-82
2021/12/12 03:29:10;;;;;;;22.27;16.07;;;;;;;;;;5023315;28;20412;-82
2021/12/12 03:31:39;;;;;;;22.10;15.85;;;;;;;;;;5015598;28;20476;-82
2021/12/12 03:34:08;;;;;;;19.00;14.68;;;;;;;;;;5015338;28;20893;-83
2021/12/12 03:36:36;;;;;;;19.90;14.10;;;;;;;;;;5014602;28;20411;-83
2021/12/12 03:39:07;;;;;;;22.27;14.40;;;;;;;;;;5015115;28;20633;-83
2021/12/12 03:41:36;;;;;;;20.00;14.50;;;;;;;;;;5014621;28;20421;-83
2021/12/12 03:44:07;;;;;;;19.88;14.50;;;;;;;;;;5021272;28;20402;-83
2021/12/12 03:46:36;;;;;;;19.90;13.87;;;;;;;;;;5014990;28;20407;-84
2021/12/12 03:49:05;;;;;;;19.75;13.00;;;;;;;;;;5015250;28;20411;-82
2021/12/12 03:51:32;;;;;;;17.33;12.63;;;;;;;;;;5014747;28;20411;-82
2021/12/12 03:53:59;;;;;;;18.20;12.75;;;;;;;;;;5018059;28;20409;-83
2021/12/12 03:56:27;;;;;;;16.77;12.40;;;;;;;;;;5015548;28;20425;-83
2021/12/12 03:58:55;;;;;;;16.33;11.50;;;;;;;;;;5020278;28;20452;-82
2021/12/12 04:01:25;;;;;;;15.53;11.20;;;;;;;;;;5015878;28;20451;-83
2021/12/12 04:03:56;;;;;;;16.95;11.25;;;;;;;;;;5016846;28;20433;-83
2021/12/12 04:06:26;;;;;;;14.73;10.50;;;;;;;;;;5015548;28;20421;-82
2021/12/12 04:08:54;;;;;;;14.15;10.30;;;;;;;;;;5017351;28;20482;-82
2021/12/12 04:11:24;;;;;;;14.40;10.38;;;;;;;;;;5016673;28;20409;-82
2021/12/12 04:13:54;;;;;;;13.07;10.37;;;;;;;;;;5017598;28;20494;-83
2021/12/12 04:16:22;;;;;;;15.05;11.10;;;;;;;;;;5015702;28;20405;-82
2021/12/12 04:18:49;;;;;;;15.00;11.00;;;;;;;;;;5016186;28;20796;-83
2021/12/12 04:21:22;;;;;;;15.55;10.95;;;;;;;;;;5016331;28;20410;-82
2021/12/12 04:23:49;;;;;;;15.52;10.63;;;;;;;;;;5016961;28;20415;-83
2021/12/12 04:26:20;;;;;;;15.88;10.77;;;;;;;;;;5016752;28;20401;-83
2021/12/12 04:28:56;;;;;;;13.80;9.82;;;;;;;;;;5019199;28;20854;-83
2021/12/12 04:31:23;;;;;;;15.07;10.77;;;;;;;;;;5015648;28;20417;-82
2021/12/12 04:33:51;;;;;;;14.73;10.57;;;;;;;;;;5016454;28;20412;-82
2021/12/12 04:36:24;;;;;;;15.13;10.40;;;;;;;;;;5016545;28;20405;-83
2021/12/12 04:38:50;;;;;;;15.53;10.40;;;;;;;;;;5016933;28;20419;-82
2021/12/12 04:41:22;;;;;;;15.40;10.77;;;;;;;;;;5017607;28;20920;-82
2021/12/12 04:43:49;;;;;;;14.65;10.77;;;;;;;;;;5016275;28;20488;-82
2021/12/12 04:46:22;;;;;;;14.80;10.60;;;;;;;;;;5016940;28;21177;-82
2021/12/12 04:51:44;;;;;;;14.35;10.57;;;;;;;;;;5014873;28;20788;-83
2021/12/12 04:54:16;;;;;;;14.38;10.82;;;;;;;;;;5016807;28;20424;-83
2021/12/12 04:56:52;;;;;;;14.68;10.48;;;;;;;;;;5015443;28;20494;-82
2021/12/12 04:59:24;;;;;;;15.85;10.27;;;;;;;;;;5018690;28;20424;-82
2021/12/12 05:01:59;;;;;;;12.77;10.10;;;;;;;;;;5016221;28;20927;-83
2021/12/12 05:04:30;;;;;;;13.30;10.10;;;;;;;;;;5016712;28;20427;-83
2021/12/12 05:07:05;;;;;;;13.88;10.05;;;;;;;;;;5017202;28;20422;-83
2021/12/12 05:09:35;;;;;;;12.80;9.70;;;;;;;;;;5017210;28;20401;-83
2021/12/12 05:12:05;;;;;;;13.82;9.73;;;;;;;;;;5020025;28;20408;-83
2021/12/12 05:14:36;;;;;;;14.60;9.65;;;;;;;;;;5016718;28;20437;-83
2021/12/12 05:17:20;;;;;;;11.93;8.65;;;;;;;;;;5012476;28;20411;-82
2021/12/12 05:19:51;;;;;;;14.10;9.68;;;;;;;;;;5012132;28;20461;-83
2021/12/12 05:22:23;;;;;;;14.77;9.73;;;;;;;;;;5012059;28;20421;-83
2021/12/12 05:24:53;;;;;;;12.88;9.00;;;;;;;;;;5012147;28;20878;-83
2021/12/12 05:27:24;;;;;;;12.07;9.35;;;;;;;;;;5011806;28;20409;-81
2021/12/12 05:29:57;;;;;;;11.00;8.40;;;;;;;;;;5013995;28;20405;-82
2021/12/12 05:32:25;;;;;;;13.75;8.80;;;;;;;;;;5018844;28;20415;-83
2021/12/12 05:34:54;;;;;;;10.93;7.57;;;;;;;;;;5018711;28;20399;-83
2021/12/12 05:37:22;;;;;;;10.65;7.60;;;;;;;;;;5017913;28;20407;-83
2021/12/12 05:39:49;;;;;;;12.63;7.53;;;;;;;;;;5015432;28;20805;-83
2021/12/12 05:42:19;;;;;;;11.30;7.50;;;;;;;;;;5019657;28;20406;-82
2021/12/12 05:44:46;;;;;;;10.48;8.00;;;;;;;;;;5019057;28;20416;-82
2021/12/12 05:47:13;;;;;;;11.75;7.97;;;;;;;;;;5018718;28;20761;-83
2021/12/12 05:49:43;;;;;;;11.07;7.68;;;;;;;;;;5018793;28;20404;-83
2021/12/12 05:52:13;;;;;;;10.02;7.82;;;;;;;;;;5018887;28;20460;-83
2021/12/12 05:54:42;;;;;;;11.18;7.88;;;;;;;;;;5018723;28;20405;-82
2021/12/12 05:57:11;;;;;;;11.00;7.40;;;;;;;;;;5018741;28;20874;-82
2021/12/12 05:59:38;;;;;;;9.00;7.18;;;;;;;;;;5015866;28;20430;-82
2021/12/12 06:02:06;;;;;;;10.90;7.32;;;;;;;;;;5011407;28;21132;-82
2021/12/12 06:04:34;;;;;;;10.18;6.70;;;;;;;;;;5010926;28;20407;-83
2021/12/12 06:07:03;;;;;;;8.50;6.45;;;;;;;;;;5013399;28;20497;-83
2021/12/12 06:09:32;;;;;;;9.40;6.85;;;;;;;;;;5016686;28;20417;-83
2021/12/12 06:12:02;;;;;;;8.50;6.43;;;;;;;;;;5017730;28;20811;-83
2021/12/12 06:14:34;;;;;;;8.38;6.72;;;;;;;;;;5016058;28;20791;-82
2021/12/12 06:17:04;;;;;;;10.18;6.80;;;;;;;;;;5014329;28;20473;-82
2021/12/12 06:19:33;;;;;;;9.37;6.47;;;;;;;;;;5013892;28;20426;-83
2021/12/12 06:22:02;;;;;;;8.88;6.25;;;;;;;;;;5013903;28;20403;-83
2021/12/12 06:24:32;;;;;;;9.90;6.25;;;;;;;;;;5013703;28;20403;-83
2021/12/12 06:27:06;;;;;;;8.77;5.93;;;;;;;;;;5013820;28;20395;-83
2021/12/12 06:29:33;;;;;;;9.38;6.63;;;;;;;;;;5017261;28;21077;-83
2021/12/12 06:32:00;;;;;;;9.75;6.00;;;;;;;;;;5013375;28;20422;-83
2021/12/12 06:34:28;;;;;;;8.38;5.88;;;;;;;;;;5013244;28;20969;-84
2021/12/12 06:36:56;;;;;;;9.85;6.30;;;;;;;;;;5016645;28;21179;-83
2021/12/12 06:39:24;;;;;;;9.32;6.15;;;;;;;;;;5013770;28;20417;-83
2021/12/12 06:41:52;;;;;;;9.63;5.70;;;;;;;;;;5014311;28;20402;-81
2021/12/12 06:44:21;;;;;;;10.13;6.33;;;;;;;;;;5015339;28;20897;-83
2021/12/12 06:46:49;;;;;;;9.18;6.68;;;;;;;;;;5014120;28;20901;-83
2021/12/12 06:49:17;;;;;;;10.52;6.47;;;;;;;;;;5013471;28;20399;-84
2021/12/12 06:51:48;;;;;;;8.63;6.50;;;;;;;;;;5015595;28;20393;-83
2021/12/12 06:54:16;;;;;;;10.57;7.15;;;;;;;;;;5013601;28;20469;-83
2021/12/12 06:56:44;;;;;;;10.67;6.70;;;;;;;;;;5013838;28;20407;-83
2021/12/12 06:59:11;;;;;;;9.77;6.90;;;;;;;;;;5015267;28;20422;-81
2021/12/12 07:01:39;;;;;;;13.47;9.23;;;;;;;;;;5013396;28;20876;-83
2021/12/12 07:04:09;;;;;;;10.10;7.22;;;;;;;;;;5013061;28;20418;-80
2021/12/12 07:06:37;;;;;;;9.73;6.82;;;;;;;;;;5018516;28;20418;-83
2021/12/12 07:09:07;;;;;;;10.35;7.30;;;;;;;;;;5013210;28;20403;-83
2021/12/12 07:11:36;;;;;;;10.98;7.53;;;;;;;;;;5012831;28;20406;-84
2021/12/12 07:14:04;;;;;;;10.35;7.25;;;;;;;;;;5014485;28;20403;-83
2021/12/12 07:16:32;;;;;;;11.18;7.20;;;;;;;;;;5011922;28;20434;-82
2021/12/12 07:19:00;;;;;;;11.02;7.55;;;;;;;;;;5012391;28;20441;-83
2021/12/12 07:21:29;;;;;;;10.40;7.65;;;;;;;;;;5022050;28;20416;-83
2021/12/12 07:23:56;;;;;;;10.45;7.53;;;;;;;;;;5022145;28;21024;-83
2021/12/12 07:26:24;;;;;;;10.23;7.20;;;;;;;;;;5021205;28;20410;-83
2021/12/12 07:28:53;;;;;;;13.53;8.50;;;;;;;;;;5020673;28;20416;-82
2021/12/12 07:31:23;;;;;;;10.43;7.68;;;;;;;;;;5012922;28;20436;-82
2021/12/12 07:33:53;;;;;;;12.13;8.02;;;;;;;;;;5012601;28;20409;-82
2021/12/12 07:36:23;;;;;;;13.27;8.88;;;;;;;;;;5012238;28;20820;-83
2021/12/12 07:38:55;;;;;;;10.95;7.70;;;;;;;;;;5013093;28;20401;-83
2021/12/12 07:41:26;;;;;;;11.35;7.57;;;;;;;;;;5014607;28;20765;-83
2021/12/12 07:43:54;;;;;;;12.20;8.10;;;;;;;;;;5015554;28;20410;-83
2021/12/12 07:46:22;;;;;;;11.77;8.32;;;;;;;;;;5020961;28;20410;-83
2021/12/12 07:48:51;;;;;;;9.77;8.02;;;;;;;;;;5020970;28;20411;-83
2021/12/12 07:51:20;;;;;;;11.07;8.95;;;;;;;;;;5020741;28;20405;-83
2021/12/12 07:53:52;;;;;;;11.38;8.68;;;;;;;;;;5020944;28;20401;-83
2021/12/12 07:56:20;;;;;;;12.88;8.82;;;;;;;;;;5020517;28;20834;-82
2021/12/12 07:58:47;;;;;;;10.60;7.72;;;;;;;;;;5020930;28;20406;-83
2021/12/12 08:01:14;;;;;;;12.90;9.07;;;;;;;;;;5011647;28;20427;-83
2021/12/12 08:03:42;;;;;;;12.00;8.23;;;;;;;;;;5011764;28;20671;-83
2021/12/12 08:06:13;;;;;;;11.40;8.45;;;;;;;;;;5013166;28;20399;-82
2021/12/12 08:08:42;;;;;;;12.45;8.02;;;;;;;;;;5009272;28;20482;-82
2021/12/12 08:11:11;;;;;;;10.48;7.80;;;;;;;;;;5014390;28;20432;-82
2021/12/12 08:13:38;;;;;;;10.10;7.40;;;;;;;;;;5019823;28;20413;-82
2021/12/12 08:16:08;;;;;;;9.05;6.93;;;;;;;;;;5021163;28;20810;-82
2021/12/12 08:18:38;;;;;;;8.00;6.50;;;;;;;;;;5011233;28;20399;-82
2021/12/12 08:21:06;;;;;;;9.50;6.72;;;;;;;;;;5011384;28;20446;-81
2021/12/12 08:23:34;;;;;;;9.52;7.18;;;;;;;;;;5009822;28;20406;-82
2021/12/12 08:26:03;;;;;;;10.07;7.10;;;;;;;;;;5009524;28;20403;-83
2021/12/12 08:28:31;;;;;;;9.90;6.85;;;;;;;;;;5013542;28;20483;-82
2021/12/12 08:30:59;;;;;;;9.00;6.45;;;;;;;;;;5019496;28;20401;-83
2021/12/12 08:33:27;;;;;;;10.70;7.72;;;;;;;;;;5019679;28;20407;-82
2021/12/12 08:35:55;;;;;;;14.30;9.88;;;;;;;;;;5020523;28;20402;-82
2021/12/12 08:38:23;;;;;;;19.45;11.20;;;;;;;;;;5019235;28;20411;-82
2021/12/12 08:40:54;;;;;;;17.75;12.80;;;;;;;;;;5020334;28;20434;-82
2021/12/12 08:43:25;;;;;;;15.95;11.43;;;;;;;;;;5011536;28;20813;-82
2021/12/12 08:45:58;;;;;;;15.13;11.45;;;;;;;;;;5020822;28;20407;-84
2021/12/12 08:48:28;;;;;;;15.88;12.05;;;;;;;;;;5019062;28;20822;-83
2021/12/12 08:50:58;;;;;;;16.67;12.70;;;;;;;;;;5009534;28;20495;-83
2021/12/12 08:53:25;;;;;;;17.50;12.88;;;;;;;;;;5009064;28;20408;-82
2021/12/12 08:55:56;;;;;;;17.63;12.75;;;;;;;;;;5010080;28;20711;-83
2021/12/12 08:58:27;;;;;;;19.77;14.65;;;;;;;;;;5015515;28;20409;-82
2021/12/12 09:00:59;;;;;;;19.27;13.93;;;;;;;;;;5009960;28;20798;-83
2021/12/12 09:03:31;;;;;;;20.90;15.65;;;;;;;;;;5019926;28;20407;-82
2021/12/12 09:05:58;;;;;;;25.30;18.05;;;;;;;;;;5021120;28;20417;-83
2021/12/12 09:08:30;;;;;;;27.58;19.38;;;;;;;;;;5019761;28;20888;-83
2021/12/12 09:11:02;;;;;;;26.60;18.08;;;;;;;;;;5017508;28;20402;-83
2021/12/12 09:13:34;;;;;;;21.08;13.52;;;;;;;;;;5017499;28;20786;-83
2021/12/12 09:16:08;;;;;;;18.93;13.77;;;;;;;;;;5011420;28;20415;-82
2021/12/12 09:18:43;;;;;;;17.02;12.43;;;;;;;;;;5013749;28;20422;-83
2021/12/12 09:21:13;;;;;;;19.90;14.83;;;;;;;;;;5012921;28;20928;-84
2021/12/12 09:23:45;;;;;;;21.47;15.17;;;;;;;;;;5012351;28;20411;-83
2021/12/12 09:26:15;;;;;;;25.30;16.33;;;;;;;;;;5012662;28;21217;-83
2021/12/12 09:28:45;;;;;;;22.00;15.95;;;;;;;;;;5013538;28;20409;-84
2021/12/12 09:31:17;;;;;;;22.53;16.50;;;;;;;;;;5012600;28;20891;-84
2021/12/12 09:33:47;;;;;;;27.55;17.75;;;;;;;;;;5009879;28;20417;-84
2021/12/12 09:36:18;;;;;;;26.73;18.50;;;;;;;;;;5013771;28;20397;-85
2021/12/12 09:38:48;;;;;;;29.42;18.83;;;;;;;;;;5015085;28;20429;-84
2021/12/12 09:41:27;;;;;;;25.25;18.25;;;;;;;;;;5015190;28;20417;-84
2021/12/12 09:44:37;;;;;;;24.95;17.83;;;;;;;;;;5015210;28;21132;-83
2021/12/12 09:47:28;;;;;;;21.35;16.70;;;;;;;;;;5022014;28;20491;-84
2021/12/12 09:53:24;;;;;;;25.67;17.50;;;;;;;;;;5015006;28;20565;-84
2021/12/12 09:55:57;;;;;;;22.85;16.42;;;;;;;;;;5015627;28;20458;-84
2021/12/12 09:58:32;;;;;;;24.38;17.02;;;;;;;;;;5016714;28;20528;-84
2021/12/12 10:01:04;;;;;;;21.35;16.35;;;;;;;;;;5015621;28;20426;-84
2021/12/12 10:03:44;;;;;;;22.98;17.05;;;;;;;;;;5013880;28;20414;-84
2021/12/12 10:06:18;;;;;;;21.23;15.10;;;;;;;;;;5015696;28;20895;-84
2021/12/12 10:08:55;;;;;;;19.42;14.55;;;;;;;;;;5013126;28;20423;-84
2021/12/12 10:11:31;;;;;;;18.00;14.07;;;;;;;;;;5017075;28;20884;-84
2021/12/12 10:14:04;;;;;;;17.85;13.60;;;;;;;;;;5021798;28;20500;-84
2021/12/12 10:16:38;;;;;;;17.25;13.88;;;;;;;;;;5021101;28;20409;-84
2021/12/12 10:19:17;;;;;;;19.27;14.18;;;;;;;;;;5020865;28;20409;-84
2021/12/12 10:21:51;;;;;;;17.75;13.73;;;;;;;;;;5015857;28;20430;-84
2021/12/12 10:24:27;;;;;;;15.63;13.10;;;;;;;;;;5015445;28;20413;-84
2021/12/12 10:27:01;;;;;;;17.58;14.05;;;;;;;;;;5017412;28;20432;-83
2021/12/12 10:29:32;;;;;;;22.80;17.05;;;;;;;;;;5022548;28;20434;-84
2021/12/12 10:32:08;;;;;;;19.33;14.73;;;;;;;;;;5020906;28;20902;-84
2021/12/12 10:34:41;;;;;;;25.63;18.00;;;;;;;;;;5022749;28;20412;-84
2021/12/12 10:37:15;;;;;;;21.10;16.42;;;;;;;;;;5011547;28;20503;-84
2021/12/12 10:39:44;;;;;;;20.08;15.45;;;;;;;;;;5013969;28;20418;-84
2021/12/12 10:42:15;;;;;;;18.75;14.95;;;;;;;;;;5012247;28;21220;-84
2021/12/12 10:44:47;;;;;;;22.20;16.20;;;;;;;;;;5020489;28;20421;-84
2021/12/12 10:47:19;;;;;;;18.77;14.10;;;;;;;;;;5017943;28;20405;-84
2021/12/12 10:50:10;;;;;;;18.65;14.20;;;;;;;;;;5017908;28;20413;-84
2021/12/12 10:52:43;;;;;;;18.65;13.73;;;;;;;;;;5011208;28;20417;-84
2021/12/12 10:55:17;;;;;;;18.67;14.05;;;;;;;;;;5015300;28;20528;-84
2021/12/12 10:57:50;;;;;;;20.77;13.65;;;;;;;;;;5014125;28;20401;-84
2021/12/12 11:00:22;;;;;;;15.85;12.55;;;;;;;;;;5015355;28;20414;-83
2021/12/12 11:02:56;;;;;;;15.98;11.73;;;;;;;;;;5014995;28;20464;-82
2021/12/12 11:05:31;;;;;;;14.40;11.50;;;;;;;;;;5011233;28;20580;-85
2021/12/12 11:08:06;;;;;;;12.77;10.05;;;;;;;;;;5014334;28;20899;-84
2021/12/12 11:10:37;;;;;;;15.63;12.30;;;;;;;;;;5016107;28;20413;-84
2021/12/12 11:13:10;;;;;;;13.82;10.95;;;;;;;;;;5019401;28;20424;-84
2021/12/12 11:15:45;;;;;;;15.45;10.80;;;;;;;;;;5010289;28;20730;-83
2021/12/12 11:18:18;;;;;;;13.43;10.70;;;;;;;;;;5014200;28;20413;-84
2021/12/12 11:20:54;;;;;;;12.88;9.80;;;;;;;;;;5018485;28;20421;-84
2021/12/12 11:23:28;;;;;;;13.10;10.13;;;;;;;;;;5021284;28;20409;-85
2021/12/12 11:25:59;;;;;;;15.23;10.50;;;;;;;;;;5018771;28;20455;-84
2021/12/12 11:28:31;;;;;;;14.77;11.68;;;;;;;;;;5020191;28;20580;-84
2021/12/12 11:31:05;;;;;;;14.15;12.18;;;;;;;;;;5018829;28;20413;-84
2021/12/12 11:33:38;;;;;;;17.02;12.60;;;;;;;;;;5014404;28;20881;-84
2021/12/12 11:36:08;;;;;;;21.50;15.38;;;;;;;;;;5011328;28;20887;-85
2021/12/12 11:38:43;;;;;;;21.33;16.20;;;;;;;;;;5015361;28;20492;-84
2021/12/12 11:41:17;;;;;;;18.75;14.80;;;;;;;;;;5015172;28;20438;-84
2021/12/12 11:43:49;;;;;;;21.02;16.85;;;;;;;;;;5014558;28;20894;-83
2021/12/12 11:46:25;;;;;;;21.83;17.20;;;;;;;;;;5022014;28;20573;-84
2021/12/12 11:48:56;;;;;;;22.65;16.92;;;;;;;;;;5016540;28;20409;-84
2021/12/12 11:51:29;;;;;;;21.33;15.88;;;;;;;;;;5014362;28;20410;-84
2021/12/12 11:54:01;;;;;;;19.40;14.88;;;;;;;;;;5016522;28;20422;-84
2021/12/12 11:56:34;;;;;;;16.67;13.65;;;;;;;;;;5017387;28;20498;-84
2021/12/12 11:59:09;;;;;;;18.38;14.45;;;;;;;;;;5017101;28;20409;-85
2021/12/12 12:01:57;;;;;;;21.27;16.38;;;;;;;;;;5016731;28;20430;-83
2021/12/12 12:04:55;;;;;;;17.52;14.70;;;;;;;;;;5012476;28;20920;-82
2021/12/12 12:07:40;;;;;;;19.42;14.52;;;;;;;;;;5011397;28;21043;-85
2021/12/12 12:10:13;;;;;;;18.65;13.70;;;;;;;;;;5012789;28;20402;-84
2021/12/12 12:12:58;;;;;;;17.63;12.25;;;;;;;;;;5013194;28;20434;-84
2021/12/12 12:15:38;;;;;;;15.82;11.80;;;;;;;;;;5010799;28;20785;-84
2021/12/12 12:18:14;;;;;;;14.57;11.45;;;;;;;;;;5013763;28;20482;-85
2021/12/12 12:20:47;;;;;;;14.88;12.75;;;;;;;;;;5006585;28;20488;-84
2021/12/12 12:23:33;;;;;;;16.00;12.32;;;;;;;;;;5014071;28;20466;-84
2021/12/12 12:28:56;;;;;;;14.98;12.93;;;;;;;;;;5010310;28;20420;-84
2021/12/12 12:32:05;;;;;;;12.50;11.15;;;;;;;;;;5012911;28;20547;-84
2021/12/12 12:35:10;;;;;;;26.73;21.23;;;;;;;;;;4953443;28;20490;-84
2021/12/12 12:38:16;;;;;;;17.17;13.20;;;;;;;;;;5012821;28;20436;-84
2021/12/12 12:41:15;;;;;;;13.93;12.13;;;;;;;;;;5010587;28;20957;-83
2021/12/12 12:44:34;;;;;;;15.45;12.07;;;;;;;;;;5014038;28;20420;-83
2021/12/12 12:47:37;;;;;;;12.93;10.23;;;;;;;;;;5021081;28;21002;-83
2021/12/12 12:50:49;;;;;;;11.73;8.98;;;;;;;;;;5020728;28;20683;-83
2021/12/12 12:54:01;;;;;;;11.53;8.47;;;;;;;;;;5001294;28;20900;-83
2021/12/12 12:57:17;;;;;;;8.77;6.50;;;;;;;;;;5008119;28;20760;-81
2021/12/12 13:00:03;;;;;;;8.77;7.05;;;;;;;;;;5016568;28;20498;-82
2021/12/12 13:02:40;;;;;;;9.73;6.75;;;;;;;;;;5017965;28;20498;-83
2021/12/12 13:05:48;;;;;;;7.82;6.35;;;;;;;;;;5013366;28;20539;-83
2021/12/12 13:09:16;;;;;;;9.80;7.15;;;;;;;;;;5015390;28;20409;-84
2021/12/12 13:12:13;;;;;;;7.68;6.28;;;;;;;;;;5013278;28;20615;-84
2021/12/12 13:14:52;;;;;;;7.70;6.05;;;;;;;;;;4992659;28;20535;-81
2021/12/12 13:17:27;;;;;;;8.20;6.60;;;;;;;;;;5017594;28;20976;-80
2021/12/12 13:20:11;;;;;;;7.72;6.05;;;;;;;;;;5016012;28;20412;-83
2021/12/12 13:22:45;;;;;;;7.63;6.13;;;;;;;;;;5020072;28;20432;-85
2021/12/12 13:25:18;;;;;;;8.02;6.03;;;;;;;;;;5014453;28;20403;-83
2021/12/12 13:28:05;;;;;;;7.20;5.90;;;;;;;;;;5016646;28;20444;-83
2021/12/12 13:30:42;;;;;;;8.52;6.70;;;;;;;;;;5013101;28;20419;-84
2021/12/12 13:33:18;;;;;;;9.70;7.37;;;;;;;;;;5013550;28;20718;-84
2021/12/12 13:36:00;;;;;;;8.48;7.28;;;;;;;;;;5017054;28;20485;-85
2021/12/12 13:38:33;;;;;;;8.97;7.30;;;;;;;;;;5016296;28;20910;-84
2021/12/12 13:41:09;;;;;;;8.23;7.32;;;;;;;;;;5014982;28;20403;-86
2021/12/12 13:43:46;;;;;;;10.80;8.60;;;;;;;;;;5010999;28;20428;-84
2021/12/12 13:46:22;;;;;;;10.48;8.10;;;;;;;;;;5015491;28;20409;-87
2021/12/12 13:49:00;;;;;;;9.35;8.25;;;;;;;;;;5013805;28;20414;-84
2021/12/12 13:51:40;;;;;;;9.02;7.95;;;;;;;;;;5014440;28;20494;-86
2021/12/12 13:54:21;;;;;;;9.47;7.90;;;;;;;;;;5016924;28;20427;-86
2021/12/12 13:57:04;;;;;;;8.90;8.00;;;;;;;;;;5016411;28;20406;-86
2021/12/12 13:59:46;;;;;;;9.57;8.38;;;;;;;;;;5018459;28;20428;-86
2021/12/12 14:02:15;;;;;;;9.73;8.73;;;;;;;;;;5016558;28;20422;-86
2021/12/12 14:04:49;;;;;;;10.15;9.15;;;;;;;;;;5013098;28;20431;-86
2021/12/12 14:07:19;;;;;;;10.57;9.45;;;;;;;;;;5011837;28;20415;-85
2021/12/12 14:09:48;;;;;;;11.25;9.70;;;;;;;;;;5014466;28;21009;-86
2021/12/12 14:12:18;;;;;;;12.45;9.85;;;;;;;;;;5019706;28;20402;-85
2021/12/12 14:14:54;;;;;;;11.68;10.00;;;;;;;;;;5014587;28;20426;-87
2021/12/12 14:17:26;;;;;;;12.35;10.48;;;;;;;;;;5024357;28;20501;-86
2021/12/12 14:19:57;;;;;;;13.10;10.50;;;;;;;;;;5016869;28;20521;-85
2021/12/12 14:22:24;;;;;;;12.32;10.27;;;;;;;;;;5018215;28;20424;-86
2021/12/12 14:24:56;;;;;;;13.05;11.40;;;;;;;;;;5016611;28;20774;-84
2021/12/12 14:27:26;;;;;;;13.48;11.40;;;;;;;;;;5019824;28;20417;-85
2021/12/12 14:29:55;;;;;;;13.53;10.87;;;;;;;;;;5017123;28;20512;-85
2021/12/12 14:32:27;;;;;;;14.20;11.18;;;;;;;;;;5019674;28;20401;-86
2021/12/12 14:34:58;;;;;;;13.73;11.25;;;;;;;;;;5017291;28;20405;-85
2021/12/12 14:37:29;;;;;;;13.15;11.63;;;;;;;;;;5018264;28;20483;-85
2021/12/12 14:40:02;;;;;;;15.25;11.75;;;;;;;;;;5019157;28;20476;-85
2021/12/12 14:42:32;;;;;;;15.15;11.60;;;;;;;;;;5017282;28;20463;-86
2021/12/12 14:45:08;;;;;;;14.05;11.98;;;;;;;;;;5015764;28;20461;-85
2021/12/12 14:47:38;;;;;;;18.52;12.05;;;;;;;;;;5020215;28;20411;-84
2021/12/12 14:50:13;;;;;;;14.15;11.93;;;;;;;;;;5014285;28;20410;-86
2021/12/12 14:52:41;;;;;;;14.90;11.77;;;;;;;;;;5017617;28;20532;-86
2021/12/12 14:55:15;;;;;;;15.50;11.70;;;;;;;;;;5017069;28;20411;-85
2021/12/12 14:57:48;;;;;;;16.23;12.25;;;;;;;;;;5017392;28;20523;-86
2021/12/12 15:00:20;;;;;;;16.20;12.40;;;;;;;;;;5013935;28;20421;-85
2021/12/12 15:02:50;;;;;;;17.10;12.02;;;;;;;;;;5017468;28;20586;-85
2021/12/12 15:05:23;;;;;;;16.77;12.05;;;;;;;;;;5018268;28;20858;-85
2021/12/12 15:07:53;;;;;;;17.88;12.75;;;;;;;;;;5018970;28;20487;-84
2021/12/12 15:10:24;;;;;;;18.25;12.82;;;;;;;;;;5021294;28;20463;-84
2021/12/12 15:12:55;;;;;;;16.67;12.70;;;;;;;;;;5011049;28;20399;-84
2021/12/12 15:15:25;;;;;;;19.92;13.82;;;;;;;;;;5013033;28;20923;-84
2021/12/12 15:17:54;;;;;;;18.95;13.88;;;;;;;;;;5014477;28;20838;-84